createdAt,value
2022-08-27T00:02:01.766Z,20.10
2022-08-27T00:07:02.306Z,20.07
2022-08-27T00:12:02.646Z,20.05
2022-08-27T00:17:02.721Z,20.02
2022-08-27T00:22:02.787Z,19.98
2022-08-27T00:27:02.733Z,19.94
2022-08-27T00:32:02.875Z,19.91
2022-08-27T00:37:03.174Z,19.88
2022-08-27T00:42:02.677Z,19.85
2022-08-27T00:47:02.715Z,19.82
2022-08-27T00:52:03.021Z,19.80
2022-08-27T00:57:02.844Z,19.74
2022-08-27T01:02:21.262Z,19.68
2022-08-27T01:07:22.248Z,19.61
2022-08-27T01:12:22.264Z,19.56
2022-08-27T01:17:24.425Z,19.53
2022-08-27T01:22:24.769Z,19.50
2022-08-27T01:27:24.810Z,19.47
2022-08-27T01:32:25.019Z,19.48
2022-08-27T01:37:25.089Z,19.49
2022-08-27T01:42:24.805Z,19.48
2022-08-27T01:47:24.746Z,19.49
2022-08-27T01:52:26.720Z,19.50
2022-08-27T01:57:26.833Z,19.50
2022-08-27T02:02:26.896Z,19.52
2022-08-27T02:07:26.723Z,19.52
2022-08-27T02:12:26.772Z,19.52
2022-08-27T02:17:26.815Z,19.52
2022-08-27T02:22:26.880Z,19.53
2022-08-27T02:27:26.845Z,19.53
2022-08-27T02:32:32.368Z,19.51
2022-08-27T02:37:29.841Z,19.49
2022-08-27T02:42:30.042Z,19.47
2022-08-27T02:47:29.842Z,19.46
2022-08-27T02:52:29.798Z,19.45
2022-08-27T02:57:31.015Z,19.42
2022-08-27T03:02:33.021Z,19.41
2022-08-27T03:07:32.803Z,19.42
2022-08-27T03:12:33.886Z,19.41
2022-08-27T03:17:52.149Z,19.39
2022-08-27T03:22:51.790Z,19.38
2022-08-27T03:27:51.888Z,19.38
2022-08-27T03:32:51.808Z,19.39
2022-08-27T03:37:51.816Z,19.38
2022-08-27T03:42:51.812Z,19.35
2022-08-27T03:47:52.121Z,19.31
2022-08-27T03:52:51.857Z,19.26
2022-08-27T03:57:52.912Z,19.22
2022-08-27T04:02:52.998Z,19.19
2022-08-27T04:07:52.885Z,19.15
2022-08-27T04:12:52.945Z,19.08
2022-08-27T04:17:54.860Z,19.03
2022-08-27T04:22:54.936Z,18.99
2022-08-27T04:27:54.920Z,18.98
2022-08-27T04:32:55.518Z,18.98
2022-08-27T04:37:57.092Z,18.96
2022-08-27T04:42:56.920Z,18.93
2022-08-27T04:47:56.954Z,18.90
2022-08-27T04:52:58.835Z,18.84
2022-08-27T04:57:59.241Z,18.77
2022-08-27T05:02:58.904Z,18.70
2022-08-27T05:07:58.940Z,18.65
2022-08-27T05:13:00.027Z,18.64
2022-08-27T05:18:00.336Z,18.66
2022-08-27T05:22:59.972Z,18.67
2022-08-27T05:27:59.989Z,18.67
2022-08-27T05:33:00.055Z,18.66
2022-08-27T05:38:00.140Z,18.65
2022-08-27T05:42:59.909Z,18.67
2022-08-27T05:47:59.985Z,18.68
2022-08-27T05:53:00.005Z,18.69
2022-08-27T05:57:59.911Z,18.68
2022-08-27T06:03:00.009Z,18.66
2022-08-27T06:07:59.906Z,18.64
2022-08-27T06:13:00.024Z,18.63
2022-08-27T06:17:59.927Z,18.63
2022-08-27T06:23:00.297Z,18.67
2022-08-27T06:28:01.932Z,18.71
2022-08-27T06:33:02.021Z,18.77
2022-08-27T06:38:02.061Z,18.80
2022-08-27T06:43:01.987Z,18.83
2022-08-27T06:48:02.013Z,18.85
2022-08-27T06:53:02.111Z,18.89
2022-08-27T06:58:01.983Z,18.95
2022-08-27T07:03:04.004Z,19.05
2022-08-27T07:08:04.062Z,19.21
2022-08-27T07:13:04.136Z,19.38
2022-08-27T07:18:04.872Z,19.51
2022-08-27T07:23:10.542Z,19.67
2022-08-27T07:28:08.086Z,19.86
2022-08-27T07:33:08.591Z,20.13
2022-08-27T07:38:09.114Z,20.51
2022-08-27T07:43:27.291Z,20.80
2022-08-27T07:48:27.491Z,21.03
2022-08-27T07:53:27.027Z,21.22
2022-08-27T07:58:27.105Z,21.57
2022-08-27T08:03:27.589Z,22.14
2022-08-27T08:08:28.005Z,22.72
2022-08-27T08:13:28.019Z,23.12
2022-08-27T08:18:28.323Z,23.31
2022-08-27T08:23:28.161Z,23.39
2022-08-27T08:28:28.661Z,23.40
2022-08-27T08:33:31.089Z,23.50
2022-08-27T08:38:31.407Z,23.76
2022-08-27T08:43:31.021Z,24.05
2022-08-27T08:48:31.142Z,24.28
2022-08-27T08:53:31.029Z,24.41
2022-08-27T08:58:31.076Z,24.43
2022-08-27T09:03:31.208Z,24.45
2022-08-27T09:08:38.949Z,24.75
2022-08-27T09:13:36.164Z,25.16
2022-08-27T09:18:36.207Z,25.45
2022-08-27T09:23:36.089Z,25.54
2022-08-27T09:28:54.476Z,25.23
2022-08-27T09:33:57.015Z,24.72
2022-08-27T09:38:58.184Z,24.33
2022-08-27T09:43:58.101Z,23.99
2022-08-27T09:48:58.092Z,23.66
2022-08-27T09:53:58.088Z,23.36
2022-08-27T09:58:58.170Z,23.17
2022-08-27T10:03:59.079Z,23.26
2022-08-27T10:09:05.082Z,23.50
2022-08-27T10:14:03.220Z,23.68
2022-08-27T10:19:03.152Z,23.77
2022-08-27T10:24:03.157Z,23.79
2022-08-27T10:29:03.169Z,23.69
2022-08-27T10:34:03.519Z,23.61
2022-08-27T10:39:03.424Z,23.66
2022-08-27T10:44:03.158Z,23.80
2022-08-27T10:49:03.165Z,23.96
2022-08-27T10:54:03.201Z,24.12
2022-08-27T10:59:03.312Z,24.28
2022-08-27T11:04:03.242Z,24.56
2022-08-27T11:09:07.521Z,24.99
2022-08-27T11:14:05.388Z,25.53
2022-08-27T11:19:05.205Z,26.19
2022-08-27T11:24:05.206Z,26.89
2022-08-27T11:29:05.242Z,27.36
2022-08-27T11:34:07.501Z,27.45
2022-08-27T11:39:07.250Z,27.35
2022-08-27T11:44:07.200Z,27.21
2022-08-27T11:49:07.224Z,27.04
2022-08-27T11:54:07.271Z,26.99
2022-08-27T11:59:07.192Z,27.21
2022-08-27T12:04:07.729Z,27.58
2022-08-27T12:09:08.215Z,27.85
2022-08-27T12:14:08.391Z,27.91
2022-08-27T12:19:08.564Z,27.91
2022-08-27T12:24:08.201Z,28.03
2022-08-27T12:29:08.230Z,28.26
2022-08-27T12:34:10.388Z,28.52
2022-08-27T12:39:10.237Z,28.59
2022-08-27T12:44:10.224Z,28.56
2022-08-27T12:49:39.311Z,28.65
2022-08-27T12:54:15.225Z,28.86
2022-08-27T12:59:15.551Z,29.07
2022-08-27T13:04:15.322Z,29.12
2022-08-27T13:09:15.234Z,29.12
2022-08-27T13:14:15.270Z,29.04
2022-08-27T13:19:15.537Z,28.84
2022-08-27T13:24:15.266Z,28.69
2022-08-27T13:29:15.308Z,28.61
2022-08-27T13:34:15.345Z,28.47
2022-08-27T13:39:15.383Z,28.27
2022-08-27T13:44:16.127Z,28.16
2022-08-27T13:49:16.968Z,28.17
2022-08-27T13:54:17.331Z,28.15
2022-08-27T13:59:17.299Z,27.91
2022-08-27T14:04:17.479Z,27.56
2022-08-27T14:09:17.341Z,27.26
2022-08-27T14:14:17.631Z,26.98
2022-08-27T14:19:17.429Z,26.77
2022-08-27T14:24:17.547Z,26.67
2022-08-27T14:29:17.742Z,26.60
2022-08-27T14:34:17.511Z,26.46
2022-08-27T14:39:17.352Z,26.29
2022-08-27T14:44:19.329Z,26.12
2022-08-27T14:49:19.368Z,25.96
2022-08-27T14:54:19.403Z,25.84
2022-08-27T14:59:20.148Z,25.73
2022-08-27T15:04:20.504Z,25.61
2022-08-27T15:09:23.199Z,25.54
2022-08-27T15:14:23.463Z,25.50
2022-08-27T15:19:23.472Z,25.46
2022-08-27T15:24:24.118Z,25.42
2022-08-27T15:29:24.464Z,25.43
2022-08-27T15:34:24.493Z,25.42
2022-08-27T15:39:24.381Z,25.42
2022-08-27T15:44:24.411Z,25.44
2022-08-27T15:49:24.417Z,25.40
2022-08-27T15:54:24.428Z,25.32
2022-08-27T15:59:24.516Z,25.19
2022-08-27T16:04:24.597Z,25.06
2022-08-27T16:09:24.455Z,24.94
2022-08-27T16:14:24.493Z,24.85
2022-08-27T16:19:24.529Z,24.76
2022-08-27T16:24:24.458Z,24.68
2022-08-27T16:29:24.450Z,24.59
2022-08-27T16:34:24.676Z,24.49
2022-08-27T16:39:25.801Z,24.40
2022-08-27T16:44:26.491Z,24.30
2022-08-27T16:49:44.723Z,24.18
2022-08-27T16:54:45.573Z,24.05
2022-08-27T16:59:45.511Z,23.92
2022-08-27T17:04:48.013Z,23.78
2022-08-27T17:09:47.495Z,23.64
2022-08-27T17:14:47.478Z,23.51
2022-08-27T17:19:47.480Z,23.38
2022-08-27T17:24:47.483Z,23.23
2022-08-27T17:29:47.500Z,23.09
2022-08-27T17:34:47.574Z,22.94
2022-08-27T17:39:48.100Z,22.81
2022-08-27T17:44:48.532Z,22.68
2022-08-27T17:49:48.496Z,22.57
2022-08-27T17:54:50.395Z,22.47
2022-08-27T17:59:50.510Z,22.39
2022-08-27T18:04:50.680Z,22.31
2022-08-27T18:09:50.648Z,22.24
2022-08-27T18:14:50.508Z,22.18
2022-08-27T18:19:51.265Z,22.13
2022-08-27T18:24:51.521Z,22.07
2022-08-27T18:29:51.540Z,22.01
2022-08-27T18:34:53.584Z,21.95
2022-08-27T18:39:53.671Z,21.88
2022-08-27T18:44:53.603Z,21.80
2022-08-27T18:49:53.536Z,21.73
2022-08-27T18:54:53.778Z,21.69
2022-08-27T18:59:53.622Z,21.67
2022-08-27T19:04:53.641Z,21.65
2022-08-27T19:09:53.620Z,21.63
2022-08-27T19:14:53.608Z,21.60
2022-08-27T19:19:53.658Z,21.57
2022-08-27T19:24:53.615Z,21.55
2022-08-27T19:29:53.582Z,21.54
2022-08-27T19:34:54.354Z,21.52
2022-08-27T19:39:57.735Z,21.50
2022-08-27T19:44:57.649Z,21.49
2022-08-27T19:49:57.667Z,21.48
2022-08-27T19:55:13.211Z,21.47
2022-08-27T19:59:59.798Z,21.46
2022-08-27T20:05:16.794Z,21.44
2022-08-27T20:10:01.683Z,21.42
2022-08-27T20:15:03.665Z,21.38
2022-08-27T20:20:03.770Z,21.34
2022-08-27T20:25:03.631Z,21.31
2022-08-27T20:30:04.307Z,21.28
2022-08-27T20:35:04.740Z,21.26
2022-08-27T20:40:04.836Z,21.23
2022-08-27T20:45:07.536Z,21.21
2022-08-27T20:50:06.688Z,21.18
2022-08-27T20:55:06.717Z,21.14
2022-08-27T21:00:21.955Z,21.10
2022-08-27T21:05:21.792Z,21.06
2022-08-27T21:10:21.666Z,21.02
2022-08-27T21:15:21.705Z,20.97
2022-08-27T21:20:21.759Z,20.92
2022-08-27T21:25:23.546Z,20.87
2022-08-27T21:30:24.196Z,20.84
2022-08-27T21:35:25.657Z,20.81
2022-08-27T21:40:27.610Z,20.79
2022-08-27T21:45:27.761Z,20.77
2022-08-27T21:50:27.667Z,20.75
2022-08-27T21:55:27.860Z,20.73
2022-08-27T22:00:27.792Z,20.70
2022-08-27T22:05:27.771Z,20.66
2022-08-27T22:10:27.784Z,20.62
2022-08-27T22:15:29.819Z,20.58
2022-08-27T22:20:29.821Z,20.55
2022-08-27T22:25:29.785Z,20.52
2022-08-27T22:30:29.780Z,20.49
2022-08-27T22:35:29.829Z,20.47
2022-08-27T22:40:29.854Z,20.45
2022-08-27T22:45:30.742Z,20.43
2022-08-27T22:50:30.787Z,20.40
2022-08-27T22:55:30.723Z,20.40
2022-08-27T23:00:30.721Z,20.41
2022-08-27T23:05:40.482Z,20.42
2022-08-27T23:10:34.809Z,20.44
2022-08-27T23:15:34.742Z,20.45
2022-08-27T23:20:34.791Z,20.46
2022-08-27T23:25:53.113Z,20.46
2022-08-27T23:30:52.838Z,20.45
2022-08-27T23:35:52.902Z,20.44
2022-08-27T23:40:52.942Z,20.41
2022-08-27T23:45:52.769Z,20.38
2022-08-27T23:50:52.765Z,20.34
2022-08-27T23:55:52.853Z,20.29
